First Clarity — A8RM8 — position and weather

sailwx.info

Track history (hours):
 
Tides and Currents Weather Stations Pressure Air Temp Water Temp Dewpoint Dewpoint Depression Visibility Wind Speed Wind Dir Waves Ship Positions

First Clarity

Last reported at 2016-Mar-28 19:31 UTC. Time now 2016-May-02 01:21 UTC.
Position N 34°29' E 138°32'.
Warning: this ship's position is 34 days out of date.

Length 104 m; draft 5.4 m.

Type: Cargo ship. MMSI: 636014129.

Date/timePositionNaut miles runAvg speedWind from/ knotsBaromVisibWave heightAir tempDewpointWater temp
2016-Mar-28 19:31N 34°29' E 138°32'68 8.5
2016-Mar-28 11:33N 35°06' E 139°42'1010.1
2016-Mar-28 10:33N 35°16' E 139°46'10 9.9
2016-Mar-28 09:34N 35°24' E 139°39'1 0.7
2016-Mar-28 08:32N 35°24' E 139°38'0 0.0
2016-Mar-28 07:32N 35°24' E 139°38'0 0.0
2016-Mar-28 06:32N 35°24' E 139°38'0 0.0
2016-Mar-28 05:32N 35°24' E 139°38'0 0.0
2016-Mar-28 04:32N 35°24' E 139°38'0 0.0
2016-Mar-28 03:32N 35°24' E 139°38'0 0.0
2016-Mar-28 02:32N 35°24' E 139°38'0 0.0
2016-Mar-28 01:32N 35°24' E 139°38'0 0.0
2016-Mar-28 00:32N 35°24' E 139°38'0 0.0
2016-Mar-27 23:32N 35°24' E 139°38'0 0.2
2016-Mar-27 22:33N 35°25' E 139°39'1 1.3
2016-Mar-27 21:33N 35°24' E 139°40'0 0.0
2016-Mar-27 20:33N 35°24' E 139°40'0 0.0
2016-Mar-27 19:33N 35°24' E 139°40'0 0.0
2016-Mar-27 18:33N 35°24' E 139°40'0 0.0
2016-Mar-27 17:33N 35°24' E 139°40'0 0.0
2016-Mar-27 16:33N 35°24' E 139°40'0 0.0
2016-Mar-27 15:33N 35°24' E 139°40'0 0.0
2016-Mar-27 14:33N 35°24' E 139°40'0 0.0
2016-Mar-27 13:33N 35°24' E 139°40'0 0.1
2016-Mar-27 12:33N 35°24' E 139°40'0 0.0
2016-Mar-27 11:33N 35°24' E 139°40'0 0.0
2016-Mar-27 10:33N 35°24' E 139°40'0 0.0
2016-Mar-27 09:33N 35°24' E 139°40'0 0.0
2016-Mar-27 08:33N 35°24' E 139°40'0 0.0
2016-Mar-27 07:33N 35°24' E 139°40'0 0.0
2016-Mar-27 06:33N 35°24' E 139°40'0 0.0
2016-Mar-27 05:33N 35°24' E 139°40'0 0.0
2016-Mar-27 04:33N 35°24' E 139°40'0 0.0
2016-Mar-27 03:33N 35°24' E 139°40'1 0.7
2016-Mar-27 02:33N 35°23' E 139°40'10 9.5
2016-Mar-27 01:33N 35°15' E 139°47'9 9.3
2016-Mar-27 00:33N 35°06' E 139°45'69 9.5
2016-Mar-26 17:14N 34°29' E 138°33'  
2016-Mar-18 21:25N 34°29' E 138°32'  
Track history (hours):
 
Tides and Currents Weather Stations Pressure Air Temp Water Temp Dewpoint Dewpoint Depression Visibility Wind Speed Wind Dir Waves Ship Positions

First Clarity

Last reported at 2016-Mar-28 19:31 UTC. Time now 2016-May-02 01:21 UTC.
Position N 34°29' E 138°32'.
Warning: this ship's position is 34 days out of date.

Length 104 m; draft 5.4 m.

Type: Cargo ship. MMSI: 636014129.

Date/timePositionNaut miles runAvg speedWind from/ knotsBaromVisibWave heightAir tempDewpointWater temp
2016-Mar-28 19:31N 34°29' E 138°32'68 8.5
2016-Mar-28 11:33N 35°06' E 139°42'1010.1
2016-Mar-28 10:33N 35°16' E 139°46'10 9.9
2016-Mar-28 09:34N 35°24' E 139°39'1 0.7
2016-Mar-28 08:32N 35°24' E 139°38'0 0.0
2016-Mar-28 07:32N 35°24' E 139°38'0 0.0
2016-Mar-28 06:32N 35°24' E 139°38'0 0.0
2016-Mar-28 05:32N 35°24' E 139°38'0 0.0
2016-Mar-28 04:32N 35°24' E 139°38'0 0.0
2016-Mar-28 03:32N 35°24' E 139°38'0 0.0
2016-Mar-28 02:32N 35°24' E 139°38'0 0.0
2016-Mar-28 01:32N 35°24' E 139°38'0 0.0
2016-Mar-28 00:32N 35°24' E 139°38'0 0.0
2016-Mar-27 23:32N 35°24' E 139°38'0 0.2
2016-Mar-27 22:33N 35°25' E 139°39'1 1.3
2016-Mar-27 21:33N 35°24' E 139°40'0 0.0
2016-Mar-27 20:33N 35°24' E 139°40'0 0.0
2016-Mar-27 19:33N 35°24' E 139°40'0 0.0
2016-Mar-27 18:33N 35°24' E 139°40'0 0.0
2016-Mar-27 17:33N 35°24' E 139°40'0 0.0
2016-Mar-27 16:33N 35°24' E 139°40'0 0.0
2016-Mar-27 15:33N 35°24' E 139°40'0 0.0
2016-Mar-27 14:33N 35°24' E 139°40'0 0.0
2016-Mar-27 13:33N 35°24' E 139°40'0 0.1
2016-Mar-27 12:33N 35°24' E 139°40'0 0.0
2016-Mar-27 11:33N 35°24' E 139°40'0 0.0
2016-Mar-27 10:33N 35°24' E 139°40'0 0.0
2016-Mar-27 09:33N 35°24' E 139°40'0 0.0
2016-Mar-27 08:33N 35°24' E 139°40'0 0.0
2016-Mar-27 07:33N 35°24' E 139°40'0 0.0
2016-Mar-27 06:33N 35°24' E 139°40'0 0.0
2016-Mar-27 05:33N 35°24' E 139°40'0 0.0
2016-Mar-27 04:33N 35°24' E 139°40'0 0.0
2016-Mar-27 03:33N 35°24' E 139°40'1 0.7
2016-Mar-27 02:33N 35°23' E 139°40'10 9.5
2016-Mar-27 01:33N 35°15' E 139°47'9 9.3
2016-Mar-27 00:33N 35°06' E 139°45'69 9.5
2016-Mar-26 17:14N 34°29' E 138°33'  
2016-Mar-18 21:25N 34°29' E 138°32'  

Dump ship's entire track history